createdAt,value
2023-05-25T00:01:50.146Z,10.64
2023-05-25T00:04:17.154Z,10.61
2023-05-25T00:06:44.362Z,10.61
2023-05-25T00:09:12.253Z,10.52
2023-05-25T00:11:38.846Z,10.48
2023-05-25T00:14:05.463Z,10.46
2023-05-25T00:16:32.047Z,10.42
2023-05-25T00:18:58.583Z,10.40
2023-05-25T00:21:25.111Z,10.35
2023-05-25T00:23:51.650Z,10.34
2023-05-25T00:26:19.540Z,10.33
2023-05-25T00:28:46.078Z,10.29
2023-05-25T00:31:12.693Z,10.25
2023-05-25T00:33:39.459Z,10.21
2023-05-25T00:36:06.483Z,10.15
2023-05-25T00:38:33.003Z,10.12
2023-05-25T00:40:59.579Z,10.11
2023-05-25T00:43:27.485Z,10.07
2023-05-25T00:45:54.289Z,10.04
2023-05-25T00:48:21.852Z,10.03
2023-05-25T00:50:48.633Z,10.03
2023-05-25T00:53:15.415Z,10.02
2023-05-25T00:55:49.398Z,10.04
2023-05-25T00:58:17.841Z,10.03
2023-05-25T01:00:47.787Z,10.08
2023-05-25T01:03:15.695Z,10.06
2023-05-25T01:05:43.035Z,10.06
2023-05-25T01:08:11.816Z,9.97
2023-05-25T01:10:39.234Z,9.99
2023-05-25T01:13:08.641Z,9.99
2023-05-25T01:15:37.152Z,9.95
2023-05-25T01:18:05.305Z,9.91
2023-05-25T01:20:31.983Z,9.88
2023-05-25T01:23:10.531Z,9.84
2023-05-25T01:25:40.093Z,9.81
2023-05-25T01:28:09.288Z,9.76
2023-05-25T01:30:37.815Z,9.73
2023-05-25T01:33:05.323Z,9.71
2023-05-25T01:35:32.964Z,9.71
2023-05-25T01:38:01.529Z,9.67
2023-05-25T01:40:28.383Z,9.64
2023-05-25T01:42:55.015Z,9.62
2023-05-25T01:45:21.771Z,9.62
2023-05-25T01:47:57.422Z,9.58
2023-05-25T01:50:30.858Z,9.58
2023-05-25T01:53:02.961Z,9.58
2023-05-25T01:55:33.023Z,9.58
2023-05-25T01:58:00.805Z,9.58
2023-05-25T02:00:29.611Z,9.56
2023-05-25T02:02:56.274Z,9.53
2023-05-25T02:05:22.860Z,9.56
2023-05-25T02:07:49.416Z,9.53
2023-05-25T02:10:17.318Z,9.49
2023-05-25T02:12:43.892Z,9.46
2023-05-25T02:15:11.045Z,9.48
2023-05-25T02:17:37.692Z,9.44
2023-05-25T02:20:05.053Z,9.39
2023-05-25T02:22:31.681Z,9.37
2023-05-25T02:24:58.271Z,9.35
2023-05-25T02:27:26.153Z,9.38
2023-05-25T02:29:52.650Z,9.40
2023-05-25T02:32:19.277Z,9.39
2023-05-25T02:34:45.809Z,9.36
2023-05-25T02:37:12.327Z,9.34
2023-05-25T02:39:39.288Z,9.29
2023-05-25T02:42:05.902Z,9.29
2023-05-25T02:44:33.770Z,9.25
2023-05-25T02:47:00.397Z,9.28
2023-05-25T02:49:26.974Z,9.28
2023-05-25T02:51:53.478Z,9.26
2023-05-25T02:54:20.014Z,9.26
2023-05-25T02:56:46.637Z,9.19
2023-05-25T02:59:13.162Z,9.17
2023-05-25T03:01:41.053Z,9.12
2023-05-25T03:04:07.784Z,9.11
2023-05-25T03:06:34.439Z,9.12
2023-05-25T03:09:00.949Z,9.10
2023-05-25T03:11:27.427Z,9.10
2023-05-25T03:13:53.986Z,9.12
2023-05-25T03:16:20.476Z,9.12
2023-05-25T03:18:48.369Z,9.12
2023-05-25T03:21:14.973Z,9.12
2023-05-25T03:23:41.481Z,9.11
2023-05-25T03:26:08.032Z,9.11
2023-05-25T03:28:34.579Z,9.16
2023-05-25T03:31:01.087Z,9.19
2023-05-25T03:33:27.595Z,9.13
2023-05-25T03:35:55.416Z,9.13
2023-05-25T03:38:22.040Z,9.08
2023-05-25T03:40:48.521Z,9.05
2023-05-25T03:43:15.030Z,9.06
2023-05-25T03:45:41.651Z,9.00
2023-05-25T03:48:08.326Z,8.97
2023-05-25T03:50:34.826Z,8.94
2023-05-25T03:53:02.679Z,8.96
2023-05-25T03:55:29.206Z,8.95
2023-05-25T03:57:55.666Z,9.00
2023-05-25T04:00:22.147Z,9.02
2023-05-25T04:02:48.733Z,8.99
2023-05-25T04:05:15.402Z,8.94
2023-05-25T04:07:41.904Z,8.93
2023-05-25T04:10:11.024Z,8.94
2023-05-25T04:12:37.682Z,8.92
2023-05-25T04:15:05.296Z,8.90
2023-05-25T04:17:31.833Z,8.92
2023-05-25T04:19:58.411Z,8.95
2023-05-25T04:22:24.931Z,8.97
2023-05-25T04:24:51.481Z,8.99
2023-05-25T04:27:19.673Z,9.03
2023-05-25T04:29:46.351Z,9.08
2023-05-25T04:32:12.855Z,9.11
2023-05-25T04:34:39.414Z,9.15
2023-05-25T04:37:05.966Z,9.20
2023-05-25T04:39:32.472Z,9.23
2023-05-25T04:41:59.119Z,9.27
2023-05-25T04:44:27.030Z,9.30
2023-05-25T04:46:53.677Z,9.36
2023-05-25T04:49:20.692Z,9.36
2023-05-25T04:51:47.375Z,9.43
2023-05-25T04:54:13.991Z,9.47
2023-05-25T04:56:40.571Z,9.52
2023-05-25T04:59:07.123Z,9.60
2023-05-25T05:01:35.078Z,9.61
2023-05-25T05:04:01.921Z,9.67
2023-05-25T05:06:28.542Z,9.71
2023-05-25T05:08:55.093Z,9.73
2023-05-25T05:11:21.618Z,9.79
2023-05-25T05:13:48.153Z,9.82
2023-05-25T05:16:14.814Z,9.89
2023-05-25T05:18:42.805Z,9.94
2023-05-25T05:21:09.313Z,9.96
2023-05-25T05:23:35.840Z,10.01
2023-05-25T05:26:02.367Z,10.05
2023-05-25T05:28:29.516Z,10.09
2023-05-25T05:30:56.107Z,10.14
2023-05-25T05:33:22.762Z,10.19
2023-05-25T05:35:50.914Z,10.27
2023-05-25T05:38:17.420Z,10.30
2023-05-25T05:40:44.170Z,10.37
2023-05-25T05:43:12.170Z,10.44
2023-05-25T05:45:38.705Z,10.47
2023-05-25T05:48:06.109Z,10.49
2023-05-25T05:50:32.642Z,10.55
2023-05-25T05:53:00.497Z,10.63
2023-05-25T05:55:27.033Z,10.68
2023-05-25T05:57:53.549Z,10.77
2023-05-25T06:00:20.588Z,10.78
2023-05-25T06:02:47.546Z,10.86
2023-05-25T06:05:14.573Z,10.93
2023-05-25T06:07:41.267Z,11.00
2023-05-25T06:10:09.813Z,11.08
2023-05-25T06:12:36.704Z,11.14
2023-05-25T06:15:03.546Z,11.20
2023-05-25T06:17:30.132Z,11.24
2023-05-25T06:19:56.762Z,11.24
2023-05-25T06:22:23.321Z,11.30
2023-05-25T06:24:49.868Z,11.38
2023-05-25T06:27:17.845Z,11.49
2023-05-25T06:29:44.437Z,11.55
2023-05-25T06:32:11.094Z,11.58
2023-05-25T06:34:38.248Z,11.69
2023-05-25T06:37:05.350Z,11.72
2023-05-25T06:39:31.880Z,11.78
2023-05-25T06:41:58.407Z,11.77
2023-05-25T06:44:26.278Z,11.84
2023-05-25T06:46:52.863Z,11.90
2023-05-25T06:49:19.479Z,11.98
2023-05-25T06:51:46.016Z,12.01
2023-05-25T06:54:12.625Z,12.08
2023-05-25T06:56:39.212Z,12.13
2023-05-25T06:59:05.764Z,12.10
2023-05-25T07:01:33.674Z,12.09
2023-05-25T07:04:00.215Z,12.12
2023-05-25T07:06:26.741Z,12.18
2023-05-25T07:08:53.280Z,12.25
2023-05-25T07:11:19.840Z,12.41
2023-05-25T07:13:46.434Z,12.39
2023-05-25T07:16:13.244Z,12.46
2023-05-25T07:18:41.890Z,12.54
2023-05-25T07:21:08.579Z,12.64
2023-05-25T07:23:35.177Z,12.70
2023-05-25T07:26:05.025Z,12.77
2023-05-25T07:28:32.360Z,12.83
2023-05-25T07:30:59.032Z,12.84
2023-05-25T07:33:25.622Z,12.83
2023-05-25T07:35:53.554Z,12.84
2023-05-25T07:38:20.159Z,12.91
2023-05-25T07:40:46.891Z,12.94
2023-05-25T07:43:13.442Z,12.99
2023-05-25T07:45:40.267Z,13.02
2023-05-25T07:48:06.883Z,13.15
2023-05-25T07:50:33.432Z,13.34
2023-05-25T07:53:01.324Z,13.43
2023-05-25T07:55:27.824Z,13.51
2023-05-25T07:57:54.382Z,13.67
2023-05-25T08:00:21.717Z,13.76
2023-05-25T08:02:49.143Z,13.81
2023-05-25T08:05:15.789Z,13.77
2023-05-25T08:07:42.996Z,13.70
2023-05-25T08:10:11.651Z,13.67
2023-05-25T08:12:48.909Z,13.72
2023-05-25T08:15:16.759Z,13.69
2023-05-25T08:17:43.386Z,13.73
2023-05-25T08:20:10.888Z,13.70
2023-05-25T08:22:37.571Z,13.70
2023-05-25T08:25:04.779Z,13.81
2023-05-25T08:27:35.383Z,13.90
2023-05-25T08:30:02.200Z,13.93
2023-05-25T08:32:28.773Z,13.99
2023-05-25T08:34:55.340Z,14.03
2023-05-25T08:37:21.891Z,14.18
2023-05-25T08:39:48.415Z,14.42
2023-05-25T08:42:14.993Z,14.62
2023-05-25T08:44:42.949Z,14.79
2023-05-25T08:47:11.818Z,14.96
2023-05-25T08:49:39.368Z,15.17
2023-05-25T08:52:10.548Z,15.40
2023-05-25T08:54:37.838Z,15.63
2023-05-25T08:57:10.515Z,15.88
2023-05-25T08:59:42.808Z,15.98
2023-05-25T09:02:22.115Z,16.14
2023-05-25T09:04:48.752Z,16.34
2023-05-25T09:07:15.580Z,16.47
2023-05-25T09:09:42.763Z,16.50
2023-05-25T09:12:10.199Z,16.57
2023-05-25T09:14:36.851Z,16.58
2023-05-25T09:17:03.716Z,16.46
2023-05-25T09:19:31.665Z,16.20
2023-05-25T09:22:13.476Z,16.09
2023-05-25T09:24:41.422Z,16.03
2023-05-25T09:27:11.797Z,15.88
2023-05-25T09:29:38.382Z,15.65
2023-05-25T09:32:05.760Z,15.79
2023-05-25T09:34:33.809Z,15.94
2023-05-25T09:37:00.633Z,15.86
2023-05-25T09:39:27.304Z,15.79
2023-05-25T09:41:53.867Z,15.78
2023-05-25T09:44:20.603Z,15.73
2023-05-25T09:46:47.253Z,15.68
2023-05-25T09:49:14.020Z,15.64
2023-05-25T09:51:41.982Z,15.66
2023-05-25T09:54:10.446Z,15.67
2023-05-25T09:56:37.127Z,15.68
2023-05-25T09:59:03.880Z,15.74
2023-05-25T10:01:32.466Z,15.82
2023-05-25T10:04:04.159Z,15.91
2023-05-25T10:06:32.404Z,16.00
2023-05-25T10:09:00.996Z,16.10
2023-05-25T10:11:29.108Z,16.05
2023-05-25T10:13:56.095Z,16.03
2023-05-25T10:16:25.746Z,15.84
2023-05-25T10:18:58.079Z,15.85
2023-05-25T10:21:27.176Z,15.87
2023-05-25T10:23:57.471Z,15.86
2023-05-25T10:26:29.096Z,15.84
2023-05-25T10:28:59.797Z,15.81
2023-05-25T10:31:26.732Z,15.79
2023-05-25T10:33:54.250Z,15.69
2023-05-25T10:36:21.150Z,15.70
2023-05-25T10:38:51.183Z,15.70
2023-05-25T10:41:20.160Z,15.54
2023-05-25T10:43:49.162Z,15.49
2023-05-25T10:46:16.709Z,15.44
2023-05-25T10:48:46.533Z,15.52
2023-05-25T10:51:13.259Z,15.56
2023-05-25T10:53:43.671Z,15.65
2023-05-25T10:56:10.338Z,15.77
2023-05-25T10:58:41.554Z,15.91
2023-05-25T11:01:11.345Z,16.01
2023-05-25T11:03:57.660Z,16.05
2023-05-25T11:07:02.545Z,16.07
2023-05-25T11:09:30.261Z,16.05
2023-05-25T11:12:06.557Z,16.02
2023-05-25T11:14:34.284Z,15.96
2023-05-25T11:17:09.305Z,15.97
2023-05-25T11:19:41.223Z,15.85
2023-05-25T11:22:14.708Z,15.88
2023-05-25T11:24:41.992Z,15.63
2023-05-25T11:27:08.549Z,15.60
2023-05-25T11:29:35.101Z,15.73
2023-05-25T11:32:01.868Z,15.80
2023-05-25T11:34:30.708Z,15.91
2023-05-25T11:36:58.937Z,16.01
2023-05-25T11:39:25.609Z,16.13
2023-05-25T11:41:54.888Z,16.16
2023-05-25T11:44:29.368Z,16.05
2023-05-25T11:46:56.901Z,16.00
2023-05-25T11:49:24.152Z,15.96
2023-05-25T11:51:53.131Z,15.98
2023-05-25T11:54:23.938Z,16.06
2023-05-25T11:56:50.702Z,16.22
2023-05-25T11:59:17.331Z,16.43
2023-05-25T12:01:43.916Z,16.68
2023-05-25T12:04:11.961Z,16.91
2023-05-25T12:06:38.640Z,17.08
2023-05-25T12:09:12.069Z,17.22
2023-05-25T12:11:38.728Z,17.22
2023-05-25T12:14:06.706Z,17.25
2023-05-25T12:16:36.306Z,17.57
2023-05-25T12:19:03.478Z,17.94
2023-05-25T12:21:30.146Z,18.33
2023-05-25T12:23:57.063Z,18.71
2023-05-25T12:26:24.970Z,18.70
2023-05-25T12:28:58.793Z,18.63
2023-05-25T12:31:26.833Z,18.32
2023-05-25T12:34:09.158Z,18.09
2023-05-25T12:36:37.194Z,17.86
2023-05-25T12:39:03.888Z,17.74
2023-05-25T12:41:31.873Z,17.72
2023-05-25T12:43:58.572Z,17.59
2023-05-25T12:46:25.396Z,17.50
2023-05-25T12:48:52.169Z,17.58
2023-05-25T12:51:18.744Z,17.57
2023-05-25T12:53:49.857Z,17.59
2023-05-25T12:56:16.686Z,17.64
2023-05-25T12:58:45.050Z,17.59
2023-05-25T13:01:11.627Z,17.64
2023-05-25T13:03:38.219Z,17.77
2023-05-25T13:06:05.261Z,17.50
2023-05-25T13:08:31.832Z,17.30
2023-05-25T13:10:58.356Z,17.44
2023-05-25T13:13:24.961Z,17.68
2023-05-25T13:15:53.030Z,18.01
2023-05-25T13:18:19.727Z,18.35
2023-05-25T13:20:49.488Z,18.63
2023-05-25T13:23:17.755Z,18.89
2023-05-25T13:25:44.402Z,19.09
2023-05-25T13:28:10.941Z,19.01
2023-05-25T13:30:37.464Z,19.03
2023-05-25T13:33:05.423Z,18.94
2023-05-25T13:35:31.942Z,18.92
2023-05-25T13:37:58.556Z,18.91
2023-05-25T13:40:25.132Z,19.03
2023-05-25T13:42:51.728Z,19.05
2023-05-25T13:45:18.493Z,19.04
2023-05-25T13:47:45.626Z,19.03
2023-05-25T13:50:13.585Z,18.99
2023-05-25T13:52:40.104Z,18.82
2023-05-25T13:55:07.395Z,18.60
2023-05-25T13:57:33.955Z,18.64
2023-05-25T14:00:00.500Z,18.47
2023-05-25T14:02:27.144Z,18.29
2023-05-25T14:04:53.720Z,18.25
2023-05-25T14:07:21.593Z,18.21
2023-05-25T14:09:48.112Z,18.23
2023-05-25T14:12:14.669Z,18.24
2023-05-25T14:14:41.205Z,18.15
2023-05-25T14:17:07.744Z,18.11
2023-05-25T14:19:34.299Z,18.18
2023-05-25T14:22:12.449Z,18.27
2023-05-25T14:24:41.843Z,18.52
2023-05-25T14:27:08.608Z,18.68
2023-05-25T14:29:35.172Z,18.71
2023-05-25T14:32:02.166Z,18.71
2023-05-25T14:34:28.921Z,18.71
2023-05-25T14:36:55.613Z,18.63
2023-05-25T14:39:22.144Z,18.49
2023-05-25T14:41:50.046Z,18.40
2023-05-25T14:44:16.688Z,18.19
2023-05-25T14:46:43.301Z,18.16
2023-05-25T14:49:10.070Z,18.15
2023-05-25T14:51:36.610Z,18.18
2023-05-25T14:54:03.263Z,18.33
2023-05-25T14:56:29.804Z,18.51
2023-05-25T14:58:57.693Z,18.71
2023-05-25T15:01:25.470Z,18.77
2023-05-25T15:03:52.542Z,18.85
2023-05-25T15:06:19.514Z,18.80
2023-05-25T15:08:46.084Z,18.89
2023-05-25T15:11:12.640Z,18.96
2023-05-25T15:13:39.165Z,18.94
2023-05-25T15:16:10.388Z,18.94
2023-05-25T15:18:37.000Z,18.99
2023-05-25T15:21:03.800Z,19.00
2023-05-25T15:23:30.352Z,18.88
2023-05-25T15:25:56.886Z,18.70
2023-05-25T15:28:23.494Z,18.65
2023-05-25T15:30:50.035Z,18.60
2023-05-25T15:33:17.915Z,18.58
2023-05-25T15:35:44.746Z,18.61
2023-05-25T15:38:11.440Z,18.67
2023-05-25T15:40:37.988Z,18.73
2023-05-25T15:43:04.504Z,18.74
2023-05-25T15:45:31.033Z,18.82
2023-05-25T15:47:57.652Z,18.87
2023-05-25T15:50:25.616Z,18.92
2023-05-25T15:52:52.214Z,19.11
2023-05-25T15:55:18.768Z,19.15
2023-05-25T15:57:45.335Z,19.22
2023-05-25T16:00:13.650Z,19.28
2023-05-25T16:02:40.283Z,19.27
2023-05-25T16:05:07.713Z,19.40
2023-05-25T16:07:35.591Z,19.50
2023-05-25T16:10:02.143Z,19.33
2023-05-25T16:12:28.677Z,19.17
2023-05-25T16:14:55.433Z,19.11
2023-05-25T16:17:22.090Z,18.94
2023-05-25T16:19:48.649Z,18.96
2023-05-25T16:22:15.196Z,18.95
2023-05-25T16:24:43.050Z,18.98
2023-05-25T16:27:09.619Z,19.01
2023-05-25T16:29:36.168Z,18.99
2023-05-25T16:32:02.838Z,18.99
2023-05-25T16:34:29.410Z,18.93
2023-05-25T16:36:55.925Z,18.80
2023-05-25T16:39:22.468Z,18.63
2023-05-25T16:41:50.960Z,18.48
2023-05-25T16:44:17.654Z,18.42
2023-05-25T16:46:44.329Z,18.44
2023-05-25T16:49:10.918Z,18.47
2023-05-25T16:51:37.467Z,18.44
2023-05-25T16:54:04.148Z,18.48
2023-05-25T16:56:30.684Z,18.66
2023-05-25T16:58:58.561Z,18.82
2023-05-25T17:01:25.156Z,18.82
2023-05-25T17:03:51.804Z,18.84
2023-05-25T17:06:18.388Z,18.84
2023-05-25T17:08:44.900Z,18.85
2023-05-25T17:11:11.448Z,18.90
2023-05-25T17:13:37.993Z,18.93
2023-05-25T17:16:06.162Z,18.88
2023-05-25T17:18:32.742Z,18.74
2023-05-25T17:20:59.598Z,18.58
2023-05-25T17:23:26.122Z,18.40
2023-05-25T17:25:52.677Z,18.29
2023-05-25T17:28:19.276Z,18.14
2023-05-25T17:30:45.818Z,18.09
2023-05-25T17:33:13.706Z,18.07
2023-05-25T17:35:40.290Z,18.16
2023-05-25T17:38:06.855Z,18.19
2023-05-25T17:40:33.413Z,18.28
2023-05-25T17:42:59.934Z,18.22
2023-05-25T17:45:26.628Z,18.23
2023-05-25T17:47:53.260Z,18.39
2023-05-25T17:50:21.165Z,18.52
2023-05-25T17:52:47.717Z,18.42
2023-05-25T17:55:14.251Z,18.40
2023-05-25T17:57:40.890Z,18.38
2023-05-25T18:00:08.436Z,18.38
2023-05-25T18:02:35.240Z,18.40
2023-05-25T18:05:01.856Z,18.37
2023-05-25T18:07:29.728Z,18.40
2023-05-25T18:09:56.270Z,18.39
2023-05-25T18:12:22.791Z,18.76
2023-05-25T18:14:49.292Z,18.99
2023-05-25T18:17:15.951Z,18.85
2023-05-25T18:19:42.558Z,18.68
2023-05-25T18:22:09.090Z,18.55
2023-05-25T18:24:37.011Z,18.47
2023-05-25T18:27:03.852Z,18.42
2023-05-25T18:29:30.489Z,18.25
2023-05-25T18:31:57.091Z,18.21
2023-05-25T18:34:23.652Z,18.16
2023-05-25T18:36:50.177Z,18.12
2023-05-25T18:39:16.849Z,18.14
2023-05-25T18:41:44.773Z,18.00
2023-05-25T18:44:11.367Z,17.93
2023-05-25T18:46:37.991Z,17.77
2023-05-25T18:49:04.534Z,17.72
2023-05-25T18:51:31.067Z,17.80
2023-05-25T18:53:57.585Z,17.74
2023-05-25T18:56:24.160Z,17.68
2023-05-25T18:58:52.067Z,17.65
2023-05-25T19:01:18.725Z,17.52
2023-05-25T19:03:45.410Z,17.42
2023-05-25T19:06:12.080Z,17.39
2023-05-25T19:08:38.636Z,17.35
2023-05-25T19:11:05.229Z,17.27
2023-05-25T19:13:31.762Z,17.23
2023-05-25T19:15:59.691Z,17.18
2023-05-25T19:18:26.254Z,17.10
2023-05-25T19:20:52.812Z,17.02
2023-05-25T19:23:19.377Z,16.86
2023-05-25T19:25:46.168Z,16.72
2023-05-25T19:28:12.860Z,16.61
2023-05-25T19:30:39.382Z,16.49
2023-05-25T19:33:07.347Z,16.48
2023-05-25T19:35:33.916Z,16.38
2023-05-25T19:38:01.859Z,16.28
2023-05-25T19:40:29.078Z,16.19
2023-05-25T19:42:55.637Z,16.13
2023-05-25T19:45:22.343Z,16.07
2023-05-25T19:47:48.962Z,16.03
2023-05-25T19:50:17.111Z,15.93
2023-05-25T19:52:43.689Z,15.91
2023-05-25T19:55:10.223Z,15.90
2023-05-25T19:57:36.791Z,15.84
2023-05-25T20:00:04.754Z,15.82
2023-05-25T20:02:32.626Z,15.77
2023-05-25T20:04:59.240Z,15.68
2023-05-25T20:07:27.115Z,15.62
2023-05-25T20:09:53.694Z,15.58
2023-05-25T20:12:20.254Z,15.53
2023-05-25T20:14:46.826Z,15.48
2023-05-25T20:17:13.437Z,15.39
2023-05-25T20:19:39.966Z,15.31
2023-05-25T20:22:06.639Z,15.28
2023-05-25T20:24:34.693Z,15.36
2023-05-25T20:27:01.204Z,15.17
2023-05-25T20:29:27.764Z,15.19
2023-05-25T20:31:54.372Z,15.09
2023-05-25T20:34:20.950Z,15.09
2023-05-25T20:36:47.517Z,15.03
2023-05-25T20:39:14.139Z,15.06
2023-05-25T20:41:42.193Z,15.00
2023-05-25T20:44:08.716Z,14.79
2023-05-25T20:46:35.500Z,14.80
2023-05-25T20:49:02.113Z,14.73
2023-05-25T20:51:28.669Z,14.73
2023-05-25T20:53:55.946Z,14.67
2023-05-25T20:56:22.471Z,14.53
2023-05-25T20:58:50.318Z,14.55
2023-05-25T21:01:16.876Z,14.48
2023-05-25T21:03:43.580Z,14.51
2023-05-25T21:06:10.176Z,14.42
2023-05-25T21:08:36.766Z,14.33
2023-05-25T21:11:03.344Z,14.33
2023-05-25T21:13:29.845Z,14.20
2023-05-25T21:15:57.731Z,14.36
2023-05-25T21:18:24.306Z,14.22
2023-05-25T21:20:50.825Z,14.18
2023-05-25T21:23:17.357Z,14.03
2023-05-25T21:25:44.314Z,13.97
2023-05-25T21:28:11.094Z,13.96
2023-05-25T21:30:37.622Z,13.83
2023-05-25T21:33:05.591Z,13.85
2023-05-25T21:35:32.188Z,13.75
2023-05-25T21:37:58.723Z,13.72
2023-05-25T21:40:25.322Z,13.67
2023-05-25T21:42:51.904Z,13.65
2023-05-25T21:45:18.621Z,13.53
2023-05-25T21:47:45.204Z,13.57
2023-05-25T21:50:13.283Z,13.52
2023-05-25T21:52:39.824Z,13.51
2023-05-25T21:55:07.154Z,13.44
2023-05-25T21:57:33.693Z,13.44
2023-05-25T22:00:00.218Z,13.39
2023-05-25T22:02:26.926Z,13.35
2023-05-25T22:04:53.517Z,13.30
2023-05-25T22:07:21.422Z,13.18
2023-05-25T22:09:48.001Z,13.24
2023-05-25T22:12:14.655Z,13.17
2023-05-25T22:14:41.190Z,13.18
2023-05-25T22:17:07.925Z,13.17
2023-05-25T22:19:34.520Z,13.09
2023-05-25T22:22:01.073Z,12.95
2023-05-25T22:24:28.943Z,12.96
2023-05-25T22:26:55.478Z,13.02
2023-05-25T22:29:22.023Z,12.84
2023-05-25T22:31:48.506Z,12.74
2023-05-25T22:34:15.091Z,12.89
2023-05-25T22:36:41.629Z,12.68
2023-05-25T22:39:08.123Z,12.67
2023-05-25T22:41:36.022Z,12.50
2023-05-25T22:44:02.537Z,12.46
2023-05-25T22:46:29.090Z,12.42
2023-05-25T22:48:56.240Z,12.35
2023-05-25T22:51:22.753Z,12.42
2023-05-25T22:53:49.279Z,12.36
2023-05-25T22:56:15.778Z,12.32
2023-05-25T22:58:43.646Z,12.34
2023-05-25T23:01:10.167Z,12.30
2023-05-25T23:03:36.737Z,12.32
2023-05-25T23:06:03.606Z,12.30
2023-05-25T23:08:30.178Z,12.16
2023-05-25T23:10:56.698Z,12.09
2023-05-25T23:13:23.206Z,12.06
2023-05-25T23:15:51.161Z,12.00
2023-05-25T23:18:17.845Z,12.00
2023-05-25T23:20:44.404Z,11.94
2023-05-25T23:23:11.141Z,11.88
2023-05-25T23:25:37.692Z,11.91
2023-05-25T23:28:04.290Z,11.89
2023-05-25T23:30:30.811Z,11.88
2023-05-25T23:32:58.750Z,11.83
2023-05-25T23:35:25.290Z,11.75
2023-05-25T23:37:51.799Z,11.77
2023-05-25T23:40:18.360Z,11.64
2023-05-25T23:42:44.882Z,11.57
2023-05-25T23:45:11.656Z,11.56
2023-05-25T23:47:38.144Z,11.46
2023-05-25T23:50:06.807Z,11.43
2023-05-25T23:52:33.477Z,11.40
2023-05-25T23:54:59.993Z,11.39
2023-05-25T23:57:26.524Z,11.39
2023-05-25T23:59:53.028Z,11.37
